Latest Coastal Weather Observations for Wilsons Promontory

IDV60701

Issued at 4:12 pm EDT Wednesday 29 March 2017 (issued every 10 minutes, with the page automatically refreshed every 10 minutes)

About coastal observations | Map of coastal stations | Coastal observations for VIC | Marine services | Other Formats
Station Details ID: 085096 Name: WILSONS PROMONTORY LIGHTHOUSE Lat: -39.13 Lon: 146.42 Height: 95.0 m
Data from the previous 72 hours. | See also: Recent months at Wilsons Promontory
Date/Time
EDT
Temp
°C
Wind Pressure Rain since
9am
mm
Weather Cloud Vis
km
Sea
Height
m
Swell
Dir  Spd
kts
Gust
kts
hPa Trend Height
m
Period
s
Dir
29/04:00pm 19.5 W 9 16 1004.1 - 0.0 - - - - - - -
29/03:30pm 19.2 W 15 25 1004.2 - 0.0 - - - - - - -
29/03:25pm 19.4 W 15 25 1004.3 - 0.0 - - - - - - -
29/03:00pm 18.8 W 14 21 1004.3 - 0.0 - - - - - - -
29/02:30pm 18.5 W 12 18 1004.9 - 0.0 - - - - - - -
29/02:00pm 19.1 W 15 20 1005.1 - 0.0 - - - - - - -
29/01:30pm 18.9 W 13 19 1005.5 - 0.0 - - - - - - -
29/01:00pm 19.5 W 12 16 1006.0 - 0.0 - - - - - - -
29/12:30pm 20.6 W 6 13 1006.5 - 0.0 - - - - - - -
29/12:00pm 20.5 WSW 5 12 1006.6 - 0.0 - - - - - - -
29/11:30am 19.9 W 4 8 1007.1 - 0.0 - - - - - - -
29/11:00am 19.3 NNW 5 10 1007.4 - 0.0 - - - - - - -
29/10:30am 19.0 N 8 12 1007.6 - 0.0 - - - - - - -
29/10:00am 19.5 N 6 14 1007.7 - 0.0 - - - - - - -
29/09:30am 18.4 N 8 16 1007.9 - 0.0 - - - - - - -
29/09:00am 17.9 N 7 16 1008.0 - 0.0 - - - - - - -
29/08:30am 17.9 N 6 12 1008.2 - 0.0 - - - - - - -
29/08:00am 17.7 N 9 20 1008.1 - 0.0 - - - - - - -
29/07:30am 17.4 NNW 7 16 1008.4 - 0.0 - - - - - - -
29/07:00am 17.4 NNW 7 14 1008.2 - 0.0 - - - - - - -
29/06:30am 17.3 NNW 6 12 1008.3 - 0.0 - - - - - - -
29/06:00am 16.7 NE 1 7 1007.8 - 0.0 - - - - - - -
29/05:30am 15.4 NNE 10 14 1008.1 - 0.0 - - - - - - -
29/05:00am 15.3 NNE 10 15 1008.1 - 0.0 - - - - - - -
29/04:30am 15.6 NNE 13 18 1008.5 - 0.0 - - - - - - -
29/03:30am 15.8 N 13 19 1009.3 - 0.0 - - - - - - -
29/03:00am 15.9 N 13 18 1009.7 - 0.0 - - - - - - -
29/02:30am 15.6 NNE 9 12 1010.1 - 0.0 - - - - - - -
29/02:00am 15.7 NNE 8 11 1010.5 - 0.0 - - - - - - -
29/01:30am 15.8 N 8 11 1010.7 - 0.0 - - - - - - -
29/01:00am 16.0 N 8 11 1010.9 - 0.0 - - - - - - -
29/12:30am 15.7 N 7 9 1011.3 - 0.0 - - - - - - -
29/12:00am 15.7 N 6 8 1011.2 - 0.0 - - - - - - -
 
Date/Time
EDT
Temp
°C
Wind Pressure Rain since
9am
mm
Weather Cloud Vis
km
Sea
Height
m
Swell
Dir  Spd
kts
Gust
kts
hPa Trend Height
m
Period
s
Dir
28/11:30pm 15.9 N 8 11 1011.8 - 0.0 - - - - - - -
28/11:00pm 15.5 N 9 12 1012.2 - 0.0 - - - - - - -
28/10:30pm 16.5 WNW 9 11 1011.9 - 0.0 - - - - - - -
28/10:00pm 16.0 WNW 8 10 1012.3 - 0.0 - - - - - - -
28/09:30pm 16.1 WNW 8 11 1012.3 - 0.0 - - - - - - -
28/09:00pm 16.2 WNW 9 11 1012.0 - 0.0 - - - - - - -
28/08:30pm 16.2 WNW 10 11 1012.0 - 0.0 - - - - - - -
28/08:00pm 16.4 W 9 13 1011.7 - 0.0 - - - - - - -
28/07:30pm 16.8 W 12 15 1011.5 - 0.0 - - - - - - -
28/07:00pm 17.0 W 13 19 1011.5 - 0.0 - - - - - - -
28/06:30pm 17.3 W 13 19 1011.6 - 0.0 - - - - - - -
28/06:00pm 17.7 W 15 23 1011.1 - 0.0 - - - - - - -
28/05:30pm 17.9 W 14 22 1011.2 - 0.0 - - - - - - -
28/05:00pm 17.9 WNW 14 22 1011.2 - 0.0 - - - - - - -
28/04:32pm 17.9 W 15 25 1011.1 - 0.0 - - - - - - -
28/04:30pm 18.0 W 14 23 1011.2 - 0.0 - - - - - - -
28/04:00pm 18.0 W 17 24 1011.1 - 0.0 - - - - - - -
28/03:30pm 18.1 W 19 25 1011.2 - 0.0 - - - - - - -
28/03:00pm 18.1 W 17 25 1011.2 - 0.0 - - - - - - -
28/02:42pm 18.4 W 18 28 1011.5 - 0.0 - - - - - - -
28/02:30pm 18.1 W 18 26 1011.7 - 0.0 - - - - - - -
28/02:03pm 18.0 W 18 28 1011.8 - 0.0 - - - - - - -
28/02:00pm 18.0 W 17 25 1011.9 - 0.0 - - - - - - -
28/01:38pm 17.5 W 15 25 1012.2 - 0.0 - - - - - - -
28/01:30pm 17.5 W 21 29 1012.2 - 0.0 - - - - - - -
28/01:06pm 18.4 W 20 30 1012.3 - 0.0 - - - - - - -
28/01:00pm 18.2 W 23 30 1012.3 - 0.0 - - - - - - -
28/12:31pm 17.9 W 20 30 1012.6 - 0.0 - - - - - - -
28/12:30pm 17.8 W 21 30 1012.6 - 0.0 - - - - - - -
28/12:00pm 17.4 W 17 28 1012.6 - 0.0 - - - - - - -
28/11:30am 17.2 W 18 29 1012.8 - 0.0 - - - - - - -
28/11:07am 17.1 W 16 29 1012.7 - 0.0 - - - - - - -
28/11:00am 17.1 W 13 23 1013.0 - 0.0 - - - - - - -
28/10:50am 17.0 W 15 27 1012.9 - 0.0 - - - - - - -
28/10:30am 17.0 W 14 24 1012.9 - 0.0 - - - - - - -
28/10:06am 16.8 WNW 15 25 1012.8 - 0.0 - - - - - - -
28/10:00am 16.7 WNW 18 25 1012.7 - 0.0 - - - - - - -
28/09:30am 16.5 WNW 7 19 1012.7 - 0.0 - - - - - - -
28/09:00am 15.6 NW 13 22 1012.2 - 14.2 - - - - - - -
28/08:30am 15.6 NNW 7 13 1012.6 - 14.2 - - - - - - -
28/08:00am 15.8 NW 10 17 1012.4 - 14.2 - - - - - - -
28/07:30am 15.9 W 15 26 1011.9 - 14.2 - - - - - - -
28/07:00am 15.7 W 15 25 1011.7 - 14.2 - - - - - - -
28/06:56am 15.7 WNW 15 25 1011.9 - 14.2 - - - - - - -
28/06:30am 15.5 NW 10 25 1011.7 - 14.2 - - - - - - -
28/06:00am 15.4 NW 10 20 1011.3 - 14.2 - - - - - - -
28/05:30am 15.4 WNW 15 27 1010.8 - 14.2 - - - - - - -
28/05:10am 15.5 WNW 20 30 1010.8 - 14.2 - - - - - - -
28/05:00am 15.5 WNW 22 31 1010.7 - 14.2 - - - - - - -
28/04:30am 15.9 WNW 16 26 1011.0 - 14.2 - - - - - - -
28/04:26am 15.9 WNW 16 26 1011.0 - 14.2 - - - - - - -
28/04:00am 16.5 W 18 25 1010.9 - 14.2 - - - - - - -
28/03:45am 16.6 W 17 27 1010.9 - 14.2 - - - - - - -
28/03:30am 16.7 W 16 25 1011.1 - 14.2 - - - - - - -
28/03:00am 16.6 W 17 23 1010.9 - 14.2 - - - - - - -
28/02:30am 16.8 W 17 24 1011.3 - 14.2 - - - - - - -
28/02:01am 16.6 W 16 30 1011.2 - 14.2 - - - - - - -
28/02:00am 16.6 W 15 25 1011.5 - 14.2 - - - - - - -
28/01:30am 15.8 W 24 35 1011.2 - 14.2 - - - - - - -
28/01:00am 17.2 W 22 35 1011.0 - 14.0 - - - - - - -
28/12:32am 17.2 W 22 33 1010.9 - 14.0 - - - - - - -
28/12:30am 17.1 W 22 30 1011.0 - 14.0 - - - - - - -
28/12:00am 17.3 W 25 35 1010.6 - 14.0 - - - - - - -
 
Date/Time
EDT
Temp
°C
Wind Pressure Rain since
9am
mm
Weather Cloud Vis
km
Sea
Height
m
Swell
Dir  Spd
kts
Gust
kts
hPa Trend Height
m
Period
s
Dir
27/11:31pm 17.3 W 22 32 1010.7 - 14.0 - - - - - - -
27/11:30pm 17.3 W 23 32 1010.7 - 14.0 - - - - - - -
27/11:00pm 17.2 W 25 37 1010.7 - 14.0 - - - - - - -
27/10:30pm 17.3 W 27 40 1010.5 - 14.0 - - - - - - -
27/10:00pm 17.4 W 24 37 1010.5 - 14.0 - - - - - - -
27/09:30pm 17.4 W 26 37 1010.5 - 14.0 - - - - - - -
27/09:00pm 17.3 W 27 39 1010.0 - 14.0 - - - - - - -
27/08:30pm 17.2 W 22 35 1010.0 - 14.0 - - - - - - -
27/08:00pm 17.0 W 25 38 1009.3 - 14.0 - - - - - - -
27/07:30pm 16.8 W 27 39 1008.8 - 14.0 - - - - - - -
27/07:00pm 16.7 W 24 35 1008.8 - 14.0 - - - - - - -
27/06:30pm 16.6 W 31 43 1008.1 - 14.0 - - - - - - -
27/06:00pm 15.8 W 29 44 1007.5 - 14.0 - - - - - - -
27/05:30pm 14.2 W 30 43 1007.7 - 14.0 - - - - - - -
27/05:00pm 13.5 W 27 43 1008.1 - 12.8 - - - - - - -
27/04:59pm 13.6 W 26 46 1008.2 - 12.6 - - - - - - -
27/04:44pm 14.7 W 38 48 1007.9 - 11.0 - - - - - - -
27/04:42pm 15.1 W 40 48 1007.6 - 11.0 - - - - - - -
27/04:30pm 15.4 W 28 40 1006.8 - 9.8 - - - - - - -
27/04:19pm 15.1 W 25 40 1007.6 - 8.4 - - - - - - -
27/04:00pm 16.0 W 37 53 1007.2 - 2.4 - - - - - - -
27/03:30pm 18.4 W 38 50 1006.2 - 0.0 - - - - - - -
27/03:00pm 19.6 W 33 49 1005.1 - 0.0 - - - - - - -
27/02:30pm 20.0 W 30 42 1005.2 - 0.0 - - - - - - -
27/02:24pm 19.9 W 33 48 1005.5 - 0.0 - - - - - - -
27/02:00pm 21.1 W 39 55 1003.5 - 0.0 - - - - - - -
27/01:40pm 23.5 W 37 57 1002.9 - 0.0 - - - - - - -
27/01:33pm 28.8 W 31 57 1001.1 - 0.0 - - - - - - -
27/01:30pm 29.9 W 28 41 1001.4 - 0.0 - - - - - - -
27/01:21pm 32.2 W 15 35 1001.2 - 0.0 - - - - - - -
27/01:00pm 33.1 NNW 9 20 1001.5 - 0.0 - - - - - - -
27/12:44pm 32.0 N 15 30 1001.6 - 0.0 - - - - - - -
27/12:30pm 30.1 N 8 18 1001.6 - 0.0 - - - - - - -
27/12:00pm 25.8 NNE 12 19 1001.7 - 0.0 - - - - - - -
27/11:30am 23.6 NNE 15 19 1002.2 - 0.0 - - - - - - -
27/11:00am 21.2 NNE 16 20 1002.5 - 0.0 - - - - - - -
27/10:30am 21.2 N 18 24 1003.0 - 0.0 - - - - - - -
27/10:00am 20.5 N 19 24 1003.3 - 0.0 - - - - - - -
27/09:30am 21.3 NNE 18 21 1003.8 - 0.0 - - - - - - -
27/09:00am 20.1 NNE 19 24 1004.0 - 0.0 - - - - - - -
27/08:30am 19.5 NNE 18 22 1004.7 - 0.0 - - - - - - -
27/08:00am 18.7 NNE 17 21 1005.2 - 0.0 - - - - - - -
27/07:30am 18.5 NNE 17 20 1005.5 - 0.0 - - - - - - -
27/07:00am 18.4 NNE 15 17 1005.8 - 0.0 - - - - - - -
27/06:30am 18.4 NE 17 19 1005.8 - 0.0 - - - - - - -
27/06:00am 18.4 NE 16 19 1006.1 - 0.0 - - - - - - -
27/05:30am 18.4 NE 17 19 1006.4 - 0.0 - - - - - - -
27/05:00am 18.4 NE 17 19 1006.7 - 0.0 - - - - - - -
27/04:30am 18.3 NE 18 20 1007.0 - 0.0 - - - - - - -
27/04:00am 18.3 NE 18 21 1007.1 - 0.0 - - - - - - -
27/03:30am 18.3 NE 16 20 1007.9 - 0.0 - - - - - - -
27/03:00am 18.3 NE 16 19 1008.6 - 0.0 - - - - - - -
27/02:30am 18.2 NNE 17 20 1009.2 - 0.0 - - - - - - -
27/02:00am 18.3 NNE 16 20 1009.7 - 0.0 - - - - - - -
27/01:30am 18.3 NNE 16 21 1010.2 - 0.0 - - - - - - -
27/01:00am 18.3 NNE 18 22 1010.8 - 0.0 - - - - - - -
27/12:30am 18.3 NNE 18 24 1011.3 - 0.0 - - - - - - -
27/12:00am 18.2 NNE 19 26 1011.4 - 0.0 - - - - - - -
 
Date/Time
EDT
Temp
°C
Wind Pressure Rain since
9am
mm
Weather Cloud Vis
km
Sea
Height
m
Swell
Dir  Spd
kts
Gust
kts
hPa Trend Height
m
Period
s
Dir
26/11:30pm 18.1 NNE 18 23 1012.0 - 0.0 - - - - - - -
26/11:00pm 18.1 NNE 18 24 1012.4 - 0.0 - - - - - - -
26/10:30pm 18.2 NNE 16 22 1012.7 - 0.0 - - - - - - -
26/10:00pm 18.3 NNE 17 23 1013.0 - 0.0 - - - - - - -
26/09:30pm 18.3 NNE 13 19 1013.0 - 0.0 - - - - - - -
26/09:00pm 18.4 NNE 16 21 1012.8 - 0.0 - - - - - - -
26/08:30pm 17.9 NNE 14 17 1013.0 - 0.0 - - - - - - -
26/08:00pm 17.9 NNE 14 19 1013.0 - 0.0 - - - - - - -
26/07:30pm 18.0 NE 14 17 1013.0 - 0.0 - - - - - - -
26/07:00pm 18.0 NE 12 15 1013.0 - 0.0 - - - - - - -
26/06:30pm 18.2 NE 10 12 1013.1 - 0.0 - - - - - - -
26/06:00pm 18.2 NE 9 12 1012.9 - 0.0 - - - - - - -
26/05:30pm 18.6 ENE 7 9 1013.1 - 0.0 - - - - - - -
26/05:00pm 18.5 ENE 7 9 1013.1 - 0.0 - - - - - - -
26/04:30pm 18.9 E 5 7 1013.1 - 0.0 - - - - - - -

Other Formats:

Comma delimited format used in spreadsheet applications
http://www.bom.gov.au/fwo/IDV60701/IDV60701.94893.axf

JavaScript Object Notation format (JSON) in row-major order
http://www.bom.gov.au/fwo/IDV60701/IDV60701.94893.json